createdAt,value
2018-07-05T00:01:04.190Z,929.24
2018-07-05T00:02:35.862Z,929.29
2018-07-05T00:04:07.334Z,929.25
2018-07-05T00:05:38.906Z,929.27
2018-07-05T00:07:10.484Z,929.28
2018-07-05T00:08:42.049Z,929.30
2018-07-05T00:10:13.620Z,929.29
2018-07-05T00:11:45.192Z,929.33
2018-07-05T00:13:16.764Z,929.31
2018-07-05T00:14:48.336Z,929.39
2018-07-05T00:16:19.907Z,929.40
2018-07-05T00:17:51.481Z,929.41
2018-07-05T00:19:23.051Z,929.46
2018-07-05T00:20:55.524Z,929.39
2018-07-05T00:22:26.195Z,929.34
2018-07-05T00:23:57.766Z,929.29
2018-07-05T00:25:29.339Z,929.36
2018-07-05T00:27:00.911Z,929.36
2018-07-05T00:28:32.482Z,929.30
2018-07-05T00:30:04.054Z,929.34
2018-07-05T00:31:35.625Z,929.33
2018-07-05T00:33:07.347Z,929.35
2018-07-05T00:34:38.768Z,929.31
2018-07-05T00:36:10.342Z,929.32
2018-07-05T00:37:41.912Z,929.30
2018-07-05T00:39:13.785Z,929.35
2018-07-05T00:40:45.056Z,929.35
2018-07-05T00:42:16.628Z,929.32
2018-07-05T00:43:48.199Z,929.35
2018-07-05T00:45:19.771Z,929.32
2018-07-05T00:46:51.343Z,929.29
2018-07-05T00:48:22.915Z,929.33
2018-07-05T00:49:54.487Z,929.33
2018-07-05T00:51:26.159Z,929.33
2018-07-05T00:52:57.629Z,929.40
2018-07-05T00:54:29.202Z,929.39
2018-07-05T00:56:00.773Z,929.35
2018-07-05T00:57:32.444Z,929.36
2018-07-05T00:59:03.917Z,929.33
2018-07-05T01:00:35.487Z,929.35
2018-07-05T01:02:07.060Z,929.36
2018-07-05T01:03:38.630Z,929.36
2018-07-05T01:05:10.201Z,929.36
2018-07-05T01:06:41.775Z,929.31
2018-07-05T01:08:13.345Z,929.36
2018-07-05T01:09:44.915Z,929.39
2018-07-05T01:11:16.487Z,929.36
2018-07-05T01:12:48.062Z,929.30
2018-07-05T01:14:19.629Z,929.33
2018-07-05T01:15:51.304Z,929.34
2018-07-05T01:17:22.775Z,929.34
2018-07-05T01:18:54.344Z,929.38
2018-07-05T01:20:25.915Z,929.36
2018-07-05T01:21:57.488Z,929.39
2018-07-05T01:23:29.058Z,929.41
2018-07-05T01:25:00.629Z,929.45
2018-07-05T01:26:32.200Z,929.43
2018-07-05T01:28:03.771Z,929.42
2018-07-05T01:29:35.343Z,929.46
2018-07-05T01:31:06.914Z,929.48
2018-07-05T01:32:38.485Z,929.42
2018-07-05T01:34:10.157Z,929.41
2018-07-05T01:35:41.628Z,929.40
2018-07-05T01:37:13.201Z,929.44
2018-07-05T01:38:44.770Z,929.40
2018-07-05T01:40:16.492Z,929.33
2018-07-05T01:41:47.913Z,929.28
2018-07-05T01:43:19.484Z,929.33
2018-07-05T01:44:51.058Z,929.32
2018-07-05T01:46:22.627Z,929.29
2018-07-05T01:47:54.197Z,929.28
2018-07-05T01:49:25.768Z,929.32
2018-07-05T01:50:57.340Z,929.38
2018-07-05T01:52:29.462Z,929.37
2018-07-05T01:54:00.482Z,929.27
2018-07-05T01:55:32.052Z,929.27
2018-07-05T01:57:03.624Z,929.33
2018-07-05T01:58:35.194Z,929.27
2018-07-05T02:00:06.766Z,929.30
2018-07-05T02:01:38.335Z,929.20
2018-07-05T02:03:09.905Z,929.18
2018-07-05T02:04:41.480Z,929.19
2018-07-05T02:06:13.048Z,929.17
2018-07-05T02:07:44.618Z,929.19
2018-07-05T02:09:16.189Z,929.17
2018-07-05T02:10:47.859Z,929.15
2018-07-05T02:12:19.330Z,929.18
2018-07-05T02:13:50.900Z,929.19
2018-07-05T02:15:22.470Z,929.16
2018-07-05T02:16:54.041Z,929.19
2018-07-05T02:18:25.619Z,929.19
2018-07-05T02:19:57.182Z,929.21
2018-07-05T02:21:28.757Z,929.17
2018-07-05T02:23:00.426Z,929.20
2018-07-05T02:24:31.894Z,929.20
2018-07-05T02:26:03.464Z,929.18
2018-07-05T02:27:35.035Z,929.14
2018-07-05T02:29:06.955Z,929.16
2018-07-05T02:30:38.180Z,929.20
2018-07-05T02:32:09.747Z,929.21
2018-07-05T02:33:41.315Z,929.23
2018-07-05T02:35:12.886Z,929.21
2018-07-05T02:36:44.456Z,929.24
2018-07-05T02:38:16.026Z,929.23
2018-07-05T02:39:47.597Z,929.25
2018-07-05T02:41:19.167Z,929.24
2018-07-05T02:42:50.737Z,929.24
2018-07-05T02:44:22.308Z,929.17
2018-07-05T02:45:53.881Z,929.15
2018-07-05T02:47:25.548Z,929.16
2018-07-05T02:48:57.018Z,929.17
2018-07-05T02:50:28.589Z,929.14
2018-07-05T02:52:00.163Z,929.12
2018-07-05T02:53:31.729Z,929.10
2018-07-05T02:55:03.299Z,929.11
2018-07-05T02:56:34.870Z,929.11
2018-07-05T02:58:06.441Z,929.15
2018-07-05T02:59:38.261Z,929.11
2018-07-05T03:01:09.581Z,929.08
2018-07-05T03:02:41.151Z,929.14
2018-07-05T03:04:12.721Z,929.13
2018-07-05T03:05:44.392Z,929.08
2018-07-05T03:07:15.862Z,929.06
2018-07-05T03:08:47.434Z,929.07
2018-07-05T03:10:19.002Z,929.07
2018-07-05T03:11:50.573Z,929.01
2018-07-05T03:13:22.142Z,928.98
2018-07-05T03:14:53.723Z,928.91
2018-07-05T03:16:25.291Z,928.93
2018-07-05T03:17:56.854Z,928.91
2018-07-05T03:19:28.431Z,928.90
2018-07-05T03:20:59.995Z,928.92
2018-07-05T03:22:31.564Z,928.95
2018-07-05T03:24:03.385Z,928.95
2018-07-05T03:25:34.704Z,928.90
2018-07-05T03:27:06.274Z,928.89
2018-07-05T03:28:37.844Z,928.83
2018-07-05T03:30:09.665Z,928.81
2018-07-05T03:31:40.989Z,928.82
2018-07-05T03:33:12.555Z,928.83
2018-07-05T03:34:44.126Z,928.83
2018-07-05T03:36:15.694Z,928.84
2018-07-05T03:37:47.265Z,928.86
2018-07-05T03:39:18.835Z,928.93
2018-07-05T03:40:50.404Z,928.91
2018-07-05T03:42:22.275Z,928.95
2018-07-05T03:43:53.544Z,928.89
2018-07-05T03:45:25.114Z,928.90
2018-07-05T03:46:56.683Z,928.84
2018-07-05T03:48:28.253Z,928.87
2018-07-05T03:49:59.823Z,928.86
2018-07-05T03:51:31.421Z,928.84
2018-07-05T03:53:02.963Z,928.85
2018-07-05T03:54:34.535Z,928.83
2018-07-05T03:56:06.103Z,928.77
2018-07-05T03:57:37.672Z,928.82
2018-07-05T03:59:09.242Z,928.83
2018-07-05T04:00:40.912Z,928.82
2018-07-05T04:02:12.382Z,928.82
2018-07-05T04:03:43.953Z,928.86
2018-07-05T04:05:15.521Z,928.84
2018-07-05T04:06:47.091Z,928.80
2018-07-05T04:08:18.685Z,928.77
2018-07-05T04:09:50.231Z,928.81
2018-07-05T04:11:21.801Z,928.87
2018-07-05T04:12:53.521Z,928.89
2018-07-05T04:14:24.943Z,928.94
2018-07-05T04:15:56.510Z,928.90
2018-07-05T04:17:28.080Z,928.81
2018-07-05T04:18:59.901Z,928.82
2018-07-05T04:20:31.220Z,928.82
2018-07-05T04:22:02.790Z,928.79
2018-07-05T04:23:34.359Z,928.77
2018-07-05T04:25:06.080Z,928.80
2018-07-05T04:26:37.501Z,928.78
2018-07-05T04:28:09.070Z,928.76
2018-07-05T04:29:40.639Z,928.72
2018-07-05T04:31:12.209Z,928.78
2018-07-05T04:32:43.779Z,928.73
2018-07-05T04:34:15.420Z,928.71
2018-07-05T04:35:46.919Z,928.71
2018-07-05T04:37:18.589Z,928.71
2018-07-05T04:38:50.060Z,928.68
2018-07-05T04:40:21.627Z,928.68
2018-07-05T04:41:53.197Z,928.71
2018-07-05T04:43:24.867Z,928.72
2018-07-05T04:44:56.341Z,928.71
2018-07-05T04:46:27.907Z,928.71
2018-07-05T04:47:59.574Z,928.70
2018-07-05T04:49:31.054Z,928.66
2018-07-05T04:51:02.616Z,928.70
2018-07-05T04:52:34.185Z,928.67
2018-07-05T04:54:05.756Z,928.64
2018-07-05T04:55:37.485Z,928.59
2018-07-05T04:57:08.895Z,928.59
2018-07-05T04:58:40.471Z,928.57
2018-07-05T05:00:12.034Z,928.59
2018-07-05T05:01:43.604Z,928.60
2018-07-05T05:03:15.173Z,928.63
2018-07-05T05:04:46.754Z,928.66
2018-07-05T05:06:18.313Z,928.68
2018-07-05T05:07:49.883Z,928.62
2018-07-05T05:09:21.454Z,928.62
2018-07-05T05:10:53.023Z,928.54
2018-07-05T05:12:24.605Z,928.61
2018-07-05T05:13:56.462Z,928.60
2018-07-05T05:15:27.736Z,928.58
2018-07-05T05:16:59.306Z,928.61
2018-07-05T05:18:30.871Z,928.53
2018-07-05T05:20:02.441Z,928.54
2018-07-05T05:21:34.011Z,928.57
2018-07-05T05:23:05.580Z,928.55
2018-07-05T05:24:37.150Z,928.52
2018-07-05T05:26:08.821Z,928.54
2018-07-05T05:27:40.292Z,928.51
2018-07-05T05:29:11.859Z,928.47
2018-07-05T05:30:43.428Z,928.49
2018-07-05T05:32:15.098Z,928.48
2018-07-05T05:33:46.568Z,928.46
2018-07-05T05:35:18.137Z,928.44
2018-07-05T05:36:49.707Z,928.42
2018-07-05T05:38:21.276Z,928.38
2018-07-05T05:39:52.845Z,928.36
2018-07-05T05:41:24.416Z,928.38
2018-07-05T05:42:55.985Z,928.36
2018-07-05T05:44:27.554Z,928.39
2018-07-05T05:45:59.123Z,928.44
2018-07-05T05:47:30.693Z,928.44
2018-07-05T05:49:02.262Z,928.47
2018-07-05T05:50:34.032Z,928.46
2018-07-05T05:52:05.401Z,928.46
2018-07-05T05:53:36.971Z,928.47
2018-07-05T05:55:08.542Z,928.50
2018-07-05T05:56:40.212Z,928.50
2018-07-05T05:58:11.680Z,928.52
2018-07-05T05:59:43.250Z,928.49
2018-07-05T06:01:14.820Z,928.50
2018-07-05T06:02:46.640Z,928.46
2018-07-05T06:04:17.959Z,928.49
2018-07-05T06:05:49.528Z,928.42
2018-07-05T06:07:21.103Z,928.46
2018-07-05T06:08:52.768Z,928.48
2018-07-05T06:10:24.238Z,928.46
2018-07-05T06:11:55.811Z,928.47
2018-07-05T06:13:27.376Z,928.50
2018-07-05T06:14:58.948Z,928.43
2018-07-05T06:16:30.517Z,928.45
2018-07-05T06:18:02.087Z,928.43
2018-07-05T06:19:33.655Z,928.41
2018-07-05T06:21:05.229Z,928.41
2018-07-05T06:22:36.795Z,928.40
2018-07-05T06:24:08.364Z,928.39
2018-07-05T06:25:39.970Z,928.32
2018-07-05T06:27:11.703Z,928.35
2018-07-05T06:28:43.076Z,928.35
2018-07-05T06:30:14.642Z,928.34
2018-07-05T06:31:46.212Z,928.35
2018-07-05T06:33:18.032Z,928.30
2018-07-05T06:34:49.351Z,928.35
2018-07-05T06:36:20.922Z,928.33
2018-07-05T06:37:52.489Z,928.35
2018-07-05T06:39:24.059Z,928.34
2018-07-05T06:40:55.629Z,928.30
2018-07-05T06:42:27.199Z,928.30
2018-07-05T06:43:58.767Z,928.29
2018-07-05T06:45:30.636Z,928.32
2018-07-05T06:47:01.906Z,928.32
2018-07-05T06:48:33.475Z,928.27
2018-07-05T06:50:05.045Z,928.26
2018-07-05T06:51:36.614Z,928.30
2018-07-05T06:53:08.227Z,928.31
2018-07-05T06:54:39.752Z,928.26
2018-07-05T06:56:11.321Z,928.21
2018-07-05T06:57:42.991Z,928.25
2018-07-05T06:59:14.477Z,928.26
2018-07-05T07:00:46.031Z,928.28
2018-07-05T07:02:17.598Z,928.29
2018-07-05T07:03:49.519Z,928.33
2018-07-05T07:05:20.737Z,928.35
2018-07-05T07:06:52.306Z,928.38
2018-07-05T07:08:23.875Z,928.33
2018-07-05T07:09:55.595Z,928.37
2018-07-05T07:11:27.014Z,928.37
2018-07-05T07:12:58.583Z,928.31
2018-07-05T07:14:30.153Z,928.31
2018-07-05T07:16:01.870Z,928.30
2018-07-05T07:17:33.291Z,928.36
2018-07-05T07:19:04.861Z,928.34
2018-07-05T07:20:36.429Z,928.35
2018-07-05T07:22:08.099Z,928.40
2018-07-05T07:23:39.568Z,928.43
2018-07-05T07:25:11.137Z,928.47
2018-07-05T07:26:42.706Z,928.46
2018-07-05T07:28:14.375Z,928.45
2018-07-05T07:29:45.845Z,928.50
2018-07-05T07:31:17.448Z,928.48
2018-07-05T07:32:48.990Z,928.48
2018-07-05T07:34:20.803Z,928.50
2018-07-05T07:35:52.122Z,928.47
2018-07-05T07:37:23.743Z,928.40
2018-07-05T07:38:55.294Z,928.44
2018-07-05T07:40:26.931Z,928.43
2018-07-05T07:41:58.401Z,928.41
2018-07-05T07:43:29.969Z,928.42
2018-07-05T07:45:01.541Z,928.43
2018-07-05T07:46:33.258Z,928.44
2018-07-05T07:48:04.677Z,928.45
2018-07-05T07:49:36.245Z,928.48
2018-07-05T07:51:07.815Z,928.48
2018-07-05T07:52:39.484Z,928.49
2018-07-05T07:54:10.954Z,928.48
2018-07-05T07:55:42.522Z,928.40
2018-07-05T07:57:14.092Z,928.43
2018-07-05T07:58:45.861Z,928.42
2018-07-05T08:00:17.230Z,928.46
2018-07-05T08:01:48.799Z,928.51
2018-07-05T08:03:20.370Z,928.53
2018-07-05T08:04:52.188Z,928.50
2018-07-05T08:06:23.506Z,928.46
2018-07-05T08:07:55.115Z,928.52
2018-07-05T08:09:26.645Z,928.53
2018-07-05T08:10:58.214Z,928.54
2018-07-05T08:12:29.783Z,928.56
2018-07-05T08:14:01.352Z,928.62
2018-07-05T08:15:32.921Z,928.63
2018-07-05T08:17:04.745Z,928.57
2018-07-05T08:18:36.060Z,928.58
2018-07-05T08:20:07.629Z,928.56
2018-07-05T08:21:39.197Z,928.58
2018-07-05T08:23:10.767Z,928.59
2018-07-05T08:24:42.338Z,928.59
2018-07-05T08:26:13.908Z,928.60
2018-07-05T08:27:45.477Z,928.57
2018-07-05T08:29:17.143Z,928.60
2018-07-05T08:30:48.612Z,928.58
2018-07-05T08:32:20.181Z,928.60
2018-07-05T08:33:51.751Z,928.66
2018-07-05T08:35:23.670Z,928.67
2018-07-05T08:36:54.891Z,928.65
2018-07-05T08:38:26.458Z,928.59
2018-07-05T08:39:58.028Z,928.62
2018-07-05T08:41:29.599Z,928.62
2018-07-05T08:43:01.167Z,928.62
2018-07-05T08:44:32.736Z,928.62
2018-07-05T08:46:04.305Z,928.63
2018-07-05T08:47:35.874Z,928.68
2018-07-05T08:49:07.444Z,928.65
2018-07-05T08:50:39.013Z,928.69
2018-07-05T08:52:10.583Z,928.70
2018-07-05T08:53:42.253Z,928.69
2018-07-05T08:55:16.627Z,928.69
2018-07-05T08:56:45.293Z,928.69
2018-07-05T08:58:16.936Z,928.74
2018-07-05T08:59:48.532Z,928.79
2018-07-05T09:01:20.002Z,928.75
2018-07-05T09:02:51.571Z,928.77
2018-07-05T09:04:23.141Z,928.74
2018-07-05T09:05:54.962Z,928.74
2018-07-05T09:07:26.281Z,928.73
2018-07-05T09:08:57.851Z,928.74
2018-07-05T09:10:29.421Z,928.74
2018-07-05T09:12:01.091Z,928.74
2018-07-05T09:13:32.560Z,928.74
2018-07-05T09:15:04.131Z,928.79
2018-07-05T09:16:35.704Z,928.82
2018-07-05T09:18:07.420Z,928.85
2018-07-05T09:19:38.840Z,928.87
2018-07-05T09:21:10.410Z,928.86
2018-07-05T09:22:41.980Z,928.86
2018-07-05T09:24:13.549Z,928.89
2018-07-05T09:25:45.119Z,928.89
2018-07-05T09:27:16.690Z,928.91
2018-07-05T09:28:48.259Z,928.95
2018-07-05T09:30:20.030Z,928.96
2018-07-05T09:31:51.440Z,928.99
2018-07-05T09:33:22.969Z,929.02
2018-07-05T09:34:54.539Z,929.03
2018-07-05T09:36:26.361Z,929.02
2018-07-05T09:37:57.679Z,929.05
2018-07-05T09:39:29.248Z,929.06
2018-07-05T09:41:00.818Z,929.06
2018-07-05T09:42:32.390Z,929.10
2018-07-05T09:44:03.958Z,929.09
2018-07-05T09:45:35.532Z,929.12
2018-07-05T09:47:07.211Z,929.14
2018-07-05T09:48:38.967Z,929.18
2018-07-05T09:50:10.237Z,929.22
2018-07-05T09:51:41.830Z,929.26
2018-07-05T09:53:13.376Z,929.27
2018-07-05T09:54:44.946Z,929.32
2018-07-05T09:56:16.517Z,929.30
2018-07-05T09:57:48.086Z,929.32
2018-07-05T09:59:19.656Z,929.31
2018-07-05T10:00:51.326Z,929.36
2018-07-05T10:02:22.798Z,929.35
2018-07-05T10:03:54.366Z,929.36
2018-07-05T10:05:25.938Z,929.40
2018-07-05T10:06:57.856Z,929.36
2018-07-05T10:08:29.075Z,929.40
2018-07-05T10:10:00.646Z,929.41
2018-07-05T10:11:32.215Z,929.47
2018-07-05T10:13:03.818Z,929.45
2018-07-05T10:14:35.357Z,929.40
2018-07-05T10:16:06.926Z,929.47
2018-07-05T10:17:38.503Z,929.48
2018-07-05T10:19:10.066Z,929.51
2018-07-05T10:20:41.636Z,929.55
2018-07-05T10:22:13.207Z,929.53
2018-07-05T10:23:44.776Z,929.56
2018-07-05T10:25:16.448Z,929.55
2018-07-05T10:26:47.917Z,929.57
2018-07-05T10:28:19.486Z,929.59
2018-07-05T10:29:51.086Z,929.59
2018-07-05T10:31:22.627Z,929.59
2018-07-05T10:32:54.250Z,929.62
2018-07-05T10:34:25.769Z,929.66
2018-07-05T10:35:57.338Z,929.68
2018-07-05T10:37:29.160Z,929.63
2018-07-05T10:39:00.482Z,929.72
2018-07-05T10:40:32.050Z,929.72
2018-07-05T10:42:03.619Z,929.69
2018-07-05T10:43:35.292Z,929.75
2018-07-05T10:45:06.760Z,929.75
2018-07-05T10:46:38.635Z,929.80
2018-07-05T10:48:09.901Z,929.80
2018-07-05T10:49:41.471Z,929.82
2018-07-05T10:51:13.042Z,929.90
2018-07-05T10:54:16.184Z,929.91
2018-07-05T10:55:47.780Z,929.92
2018-07-05T10:57:19.327Z,929.91
2018-07-05T10:58:50.894Z,929.90
2018-07-05T11:00:22.669Z,929.96
2018-07-05T11:01:54.258Z,929.96
2018-07-05T11:03:25.778Z,929.96
2018-07-05T11:04:57.177Z,929.99
2018-07-05T11:06:28.748Z,929.97
2018-07-05T11:08:00.569Z,930.01
2018-07-05T11:09:31.889Z,929.99
2018-07-05T11:11:03.460Z,929.98
2018-07-05T11:12:35.031Z,930.00
2018-07-05T11:14:06.906Z,930.05
2018-07-05T11:15:38.175Z,930.09
2018-07-05T11:17:09.744Z,930.13
2018-07-05T11:18:41.316Z,930.14
2018-07-05T11:20:12.987Z,930.08
2018-07-05T11:21:44.661Z,930.16
2018-07-05T11:23:16.029Z,930.20
2018-07-05T11:24:47.651Z,930.23
2018-07-05T11:26:19.271Z,930.31
2018-07-05T11:27:50.742Z,930.34
2018-07-05T11:29:22.313Z,930.35
2018-07-05T11:30:53.885Z,930.33
2018-07-05T11:32:25.560Z,930.39
2018-07-05T11:33:57.030Z,930.38
2018-07-05T11:35:28.606Z,930.41
2018-07-05T11:37:00.170Z,930.40
2018-07-05T11:38:31.841Z,930.46
2018-07-05T11:40:03.316Z,930.47
2018-07-05T11:41:34.885Z,930.46
2018-07-05T11:43:06.658Z,930.47
2018-07-05T11:44:38.138Z,930.47
2018-07-05T11:46:09.601Z,930.49
2018-07-05T11:47:41.173Z,930.56
2018-07-05T11:49:12.745Z,930.65
2018-07-05T11:50:44.325Z,930.68
2018-07-05T11:52:15.975Z,930.74
2018-07-05T11:53:47.490Z,930.76
2018-07-05T11:55:19.033Z,930.69
2018-07-05T11:56:50.705Z,930.71
2018-07-05T11:58:22.179Z,930.76
2018-07-05T11:59:53.818Z,930.76
2018-07-05T12:01:25.326Z,930.74
2018-07-05T12:02:56.981Z,930.79
2018-07-05T12:04:28.675Z,930.79
2018-07-05T12:06:00.345Z,930.84
2018-07-05T12:07:31.613Z,930.84
2018-07-05T12:09:03.188Z,930.89
2018-07-05T12:10:34.772Z,930.98
2018-07-05T12:12:06.333Z,930.96
2018-07-05T12:13:37.925Z,930.92
2018-07-05T12:15:09.581Z,930.94
2018-07-05T12:16:41.054Z,930.86
2018-07-05T12:18:12.628Z,931.02
2018-07-05T12:19:44.217Z,930.89
2018-07-05T12:21:15.776Z,931.00
2018-07-05T12:22:47.958Z,930.98
2018-07-05T12:24:18.981Z,930.94
2018-07-05T12:27:22.102Z,930.91
2018-07-05T12:28:53.650Z,930.95
2018-07-05T12:30:25.225Z,930.95
2018-07-05T12:31:56.806Z,930.97
2018-07-05T12:33:28.683Z,930.99
2018-07-05T12:34:59.952Z,931.03
2018-07-05T12:36:31.527Z,931.06
2018-07-05T12:38:03.675Z,931.08
2018-07-05T12:41:06.559Z,931.00
2018-07-05T12:42:38.137Z,931.00
2018-07-05T12:44:09.407Z,930.92
2018-07-05T12:45:40.985Z,930.97
2018-07-05T12:47:12.965Z,931.06
2018-07-05T12:50:15.716Z,930.96
2018-07-05T12:51:47.341Z,930.94
2018-07-05T12:53:19.115Z,930.97
2018-07-05T12:54:50.450Z,931.00
2018-07-05T12:56:22.540Z,931.01
2018-07-05T12:57:53.606Z,930.98
2018-07-05T12:59:25.187Z,931.00
2018-07-05T13:00:56.764Z,931.02
2018-07-05T13:02:28.343Z,930.97
2018-07-05T13:04:00.008Z,931.01
2018-07-05T13:05:31.505Z,931.04
2018-07-05T13:07:03.082Z,931.08
2018-07-05T13:08:34.966Z,931.04
2018-07-05T13:10:06.778Z,931.06
2018-07-05T13:11:37.922Z,931.04
2018-07-05T13:13:09.402Z,931.06
2018-07-05T13:14:40.984Z,931.09
2018-07-05T13:17:44.365Z,931.07
2018-07-05T13:19:15.825Z,931.06
2018-07-05T13:20:47.613Z,931.06
2018-07-05T13:22:18.924Z,931.11
2018-07-05T13:23:50.465Z,931.07
2018-07-05T13:26:53.629Z,931.01
2018-07-05T13:29:57.193Z,930.96
2018-07-05T13:31:29.328Z,930.98
2018-07-05T13:32:59.998Z,930.97
2018-07-05T13:34:31.535Z,930.95
2018-07-05T13:37:34.863Z,930.97
2018-07-05T13:39:06.278Z,930.89
2018-07-05T13:42:09.707Z,930.90
2018-07-05T13:43:41.325Z,930.98
2018-07-05T13:45:12.607Z,930.93
2018-07-05T13:46:44.185Z,930.86
2018-07-05T13:48:15.944Z,930.87
2018-07-05T13:49:47.704Z,930.85
2018-07-05T13:51:18.932Z,930.81
2018-07-05T13:52:50.713Z,930.82
2018-07-05T13:54:22.093Z,930.81
2018-07-05T13:55:54.456Z,930.77
2018-07-05T13:57:25.254Z,930.75
2018-07-05T13:58:57.041Z,930.75
2018-07-05T14:00:28.425Z,930.74
2018-07-05T14:02:00.203Z,930.69
2018-07-05T14:03:31.606Z,930.71
2018-07-05T14:05:03.367Z,930.72
2018-07-05T14:06:34.747Z,930.70
2018-07-05T14:08:06.434Z,930.68
2018-07-05T14:09:38.113Z,930.64
2018-07-05T14:11:09.493Z,930.57
2018-07-05T14:12:41.075Z,930.59
2018-07-05T14:14:12.658Z,930.60
2018-07-05T14:15:44.544Z,930.55
2018-07-05T14:17:15.822Z,930.60
2018-07-05T14:18:47.406Z,930.51
2018-07-05T14:20:19.139Z,930.51
2018-07-05T14:21:50.574Z,930.54
2018-07-05T14:23:22.154Z,930.47
2018-07-05T14:24:53.838Z,930.49
2018-07-05T14:26:25.614Z,930.49
2018-07-05T14:29:28.690Z,930.45
2018-07-05T14:31:00.105Z,930.44
2018-07-05T14:32:32.058Z,930.44
2018-07-05T14:34:03.252Z,930.42
2018-07-05T14:35:35.376Z,930.36
2018-07-05T14:37:06.646Z,930.42
2018-07-05T14:38:37.996Z,930.38
2018-07-05T14:40:09.794Z,930.32
2018-07-05T14:43:13.269Z,930.36
2018-07-05T14:46:16.459Z,930.32
2018-07-05T14:47:47.485Z,930.28
2018-07-05T14:49:19.068Z,930.28
2018-07-05T14:50:50.652Z,930.28
2018-07-05T14:53:53.823Z,930.28
2018-07-05T14:56:56.987Z,930.34
2018-07-05T14:58:28.635Z,930.33
2018-07-05T15:00:00.157Z,930.44
2018-07-05T15:01:31.744Z,930.50
2018-07-05T15:03:03.342Z,930.43
2018-07-05T15:04:34.908Z,930.38
2018-07-05T15:06:06.593Z,930.36
2018-07-05T15:07:38.076Z,930.30
2018-07-05T15:10:41.246Z,930.18
2018-07-05T15:12:13.122Z,930.11
2018-07-05T15:13:44.438Z,930.06
2018-07-05T15:15:16.008Z,930.06
2018-07-05T15:16:47.585Z,930.02
2018-07-05T15:18:19.214Z,929.98
2018-07-05T15:19:50.921Z,930.03
2018-07-05T15:21:23.406Z,929.91
2018-07-05T15:22:54.125Z,929.96
2018-07-05T15:25:57.592Z,929.93
2018-07-05T15:27:28.687Z,929.96
2018-07-05T15:29:00.266Z,929.87
2018-07-05T15:30:31.860Z,929.88
2018-07-05T15:32:03.429Z,929.79
2018-07-05T15:33:35.015Z,929.77
2018-07-05T15:35:06.603Z,929.71
2018-07-05T15:36:38.186Z,929.73
2018-07-05T15:38:09.769Z,929.66
2018-07-05T15:39:41.356Z,929.66
2018-07-05T15:41:12.939Z,929.62
2018-07-05T15:42:45.461Z,929.55
2018-07-05T15:44:16.210Z,929.45
2018-07-05T15:45:47.696Z,929.37
2018-07-05T15:48:50.864Z,929.23
2018-07-05T15:50:22.754Z,929.19
2018-07-05T15:51:54.035Z,929.16
2018-07-05T15:53:25.620Z,929.12
2018-07-05T15:54:57.431Z,929.06
2018-07-05T15:56:28.790Z,929.06
2018-07-05T15:58:00.377Z,929.08
2018-07-05T15:59:31.961Z,929.05
2018-07-05T16:02:35.232Z,928.95
2018-07-05T16:04:07.223Z,929.05
2018-07-05T16:05:38.302Z,928.97
2018-07-05T16:07:09.887Z,928.97
2018-07-05T16:08:41.675Z,928.95
2018-07-05T16:10:13.079Z,928.88
2018-07-05T16:13:16.230Z,928.89
2018-07-05T16:14:47.815Z,928.81
2018-07-05T16:16:19.635Z,928.79
2018-07-05T16:17:50.986Z,928.78
2018-07-05T16:19:22.829Z,928.79
2018-07-05T16:20:54.260Z,928.76
2018-07-05T16:22:25.744Z,928.72
2018-07-05T16:23:57.380Z,928.69
2018-07-05T16:25:29.227Z,928.68
2018-07-05T16:27:00.602Z,928.72
2018-07-05T16:28:32.088Z,928.63
2018-07-05T16:30:03.677Z,928.69
2018-07-05T16:31:35.259Z,928.61
2018-07-05T16:33:07.148Z,928.57
2018-07-05T16:34:38.460Z,928.50
2018-07-05T16:36:10.036Z,928.48
2018-07-05T16:37:41.805Z,928.46
2018-07-05T16:39:13.493Z,928.38
2018-07-05T16:40:45.310Z,928.40
2018-07-05T16:42:16.364Z,928.38
2018-07-05T16:43:47.947Z,928.41
2018-07-05T16:45:19.532Z,928.38
2018-07-05T16:46:51.117Z,928.38
2018-07-05T16:49:54.534Z,928.31
2018-07-05T16:51:25.874Z,928.27
2018-07-05T16:52:57.460Z,928.25
2018-07-05T16:56:00.748Z,928.21
2018-07-05T16:57:32.317Z,928.17
2018-07-05T16:59:03.799Z,928.13
2018-07-05T17:00:35.385Z,928.13
2018-07-05T17:05:10.169Z,928.09
2018-07-05T17:06:41.728Z,928.07
2018-07-05T17:08:13.309Z,928.06
2018-07-05T17:11:16.506Z,928.09
2018-07-05T17:12:48.062Z,928.07
2018-07-05T17:14:19.644Z,928.04
2018-07-05T17:15:51.240Z,928.14
2018-07-05T17:17:23.354Z,928.19
2018-07-05T17:18:54.424Z,928.16
2018-07-05T17:20:25.983Z,928.07
2018-07-05T17:21:57.568Z,927.98
2018-07-05T17:25:00.769Z,928.04
2018-07-05T17:26:32.325Z,928.00
2018-07-05T17:28:03.910Z,928.04
2018-07-05T17:29:35.495Z,928.00
2018-07-05T17:34:10.349Z,927.92
2018-07-05T17:35:41.835Z,927.91
2018-07-05T17:37:13.419Z,927.89
2018-07-05T17:38:45.307Z,927.99
2018-07-05T17:40:16.849Z,927.97
2018-07-05T17:41:48.347Z,927.93
2018-07-05T17:43:19.757Z,927.88
2018-07-05T17:44:51.340Z,927.95
2018-07-05T17:47:55.582Z,928.00
2018-07-05T17:49:27.031Z,928.00
2018-07-05T17:50:57.702Z,927.98
2018-07-05T17:52:29.257Z,927.98
2018-07-05T17:54:01.252Z,928.02
2018-07-05T17:55:32.509Z,927.98
2018-07-05T17:57:04.005Z,927.98
2018-07-05T17:58:35.601Z,927.84
2018-07-05T18:00:07.398Z,927.82
2018-07-05T18:01:38.805Z,927.84
2018-07-05T18:03:10.336Z,927.87
2018-07-05T18:04:41.918Z,927.87
2018-07-05T18:06:13.501Z,927.87
2018-07-05T18:07:45.337Z,927.93
2018-07-05T18:09:16.717Z,927.89
2018-07-05T18:10:48.294Z,927.90
2018-07-05T18:13:51.720Z,927.84
2018-07-05T18:16:54.883Z,927.88
2018-07-05T18:18:26.181Z,927.84
2018-07-05T18:19:58.085Z,927.84
2018-07-05T18:21:29.339Z,927.84
2018-07-05T18:24:33.243Z,927.85
2018-07-05T18:26:04.088Z,927.87
2018-07-05T18:27:35.656Z,927.91
2018-07-05T18:29:07.235Z,927.86
2018-07-05T18:30:38.818Z,927.92
2018-07-05T18:32:10.700Z,927.91
2018-07-05T18:33:42.040Z,927.93
2018-07-05T18:35:13.564Z,927.94
2018-07-05T18:36:45.179Z,928.00
2018-07-05T18:38:16.731Z,927.95
2018-07-05T18:39:48.820Z,927.98
2018-07-05T18:41:19.895Z,927.95
2018-07-05T18:42:51.478Z,927.94
2018-07-05T18:44:23.060Z,927.91
2018-07-05T18:45:54.643Z,927.94
2018-07-05T18:47:26.242Z,927.89
2018-07-05T18:50:29.694Z,927.85
2018-07-05T18:52:01.159Z,927.89
2018-07-05T18:53:32.915Z,927.93
2018-07-05T18:55:04.169Z,927.94
2018-07-05T18:56:35.727Z,927.93
2018-07-05T18:58:07.304Z,927.94
2018-07-05T18:59:39.189Z,927.97
2018-07-05T19:01:10.467Z,927.99
2018-07-05T19:02:42.149Z,928.05
2018-07-05T19:04:13.632Z,927.98
2018-07-05T19:05:45.415Z,928.03
2018-07-05T19:07:16.997Z,928.00
2018-07-05T19:08:48.729Z,928.05
2018-07-05T19:11:51.743Z,928.09
2018-07-05T19:13:23.121Z,928.04
2018-07-05T19:14:54.702Z,928.02
2018-07-05T19:16:26.400Z,928.03
2018-07-05T19:17:57.866Z,928.00
2018-07-05T19:19:29.451Z,928.00
2018-07-05T19:21:01.028Z,928.02
2018-07-05T19:22:32.912Z,928.06
2018-07-05T19:24:04.241Z,928.05
2018-07-05T19:25:36.318Z,928.03
2018-07-05T19:27:08.368Z,928.12
2018-07-05T19:28:39.211Z,928.10
2018-07-05T19:30:10.526Z,928.10
2018-07-05T19:31:42.096Z,928.11
2018-07-05T19:33:13.699Z,928.07
2018-07-05T19:36:17.044Z,928.09
2018-07-05T19:37:48.418Z,928.11
2018-07-05T19:39:20.000Z,928.09
2018-07-05T19:40:51.581Z,928.11
2018-07-05T19:43:54.742Z,928.11
2018-07-05T19:45:26.525Z,928.12
2018-07-05T19:46:57.971Z,928.10
2018-07-05T19:48:29.492Z,928.15
2018-07-05T19:50:01.073Z,928.11
2018-07-05T19:51:33.075Z,928.14
2018-07-05T19:53:04.223Z,928.20
2018-07-05T19:54:35.801Z,928.16
2018-07-05T19:56:07.381Z,928.17